sensor_id;sensor_type;location;lat;lon;timestamp;P1;durP1;ratioP1;P2;durP2;ratioP2
20095;SDS011;10207;50.942;6.900;2023-02-15T00:02:25;36.67;;;18.37;;
20095;SDS011;10207;50.942;6.900;2023-02-15T00:04:51;43.20;;;19.73;;
20095;SDS011;10207;50.942;6.900;2023-02-15T00:07:19;39.67;;;19.43;;
20095;SDS011;10207;50.942;6.900;2023-02-15T00:09:45;47.13;;;22.00;;
20095;SDS011;10207;50.942;6.900;2023-02-15T00:12:11;40.70;;;19.40;;
20095;SDS011;10207;50.942;6.900;2023-02-15T00:14:37;41.37;;;21.37;;
20095;SDS011;10207;50.942;6.900;2023-02-15T00:17:03;37.90;;;20.13;;
20095;SDS011;10207;50.942;6.900;2023-02-15T00:19:29;38.20;;;20.13;;
20095;SDS011;10207;50.942;6.900;2023-02-15T00:21:55;35.47;;;17.63;;
20095;SDS011;10207;50.942;6.900;2023-02-15T00:24:21;26.10;;;14.57;;
20095;SDS011;10207;50.942;6.900;2023-02-15T00:26:47;33.73;;;16.67;;
20095;SDS011;10207;50.942;6.900;2023-02-15T00:29:15;38.47;;;17.67;;
20095;SDS011;10207;50.942;6.900;2023-02-15T00:31:41;29.77;;;15.70;;
20095;SDS011;10207;50.942;6.900;2023-02-15T00:34:10;38.73;;;18.07;;
20095;SDS011;10207;50.942;6.900;2023-02-15T00:36:37;35.80;;;16.33;;
20095;SDS011;10207;50.942;6.900;2023-02-15T00:39:03;33.70;;;18.17;;
20095;SDS011;10207;50.942;6.900;2023-02-15T00:41:30;35.57;;;18.03;;
20095;SDS011;10207;50.942;6.900;2023-02-15T00:43:57;41.30;;;21.00;;
20095;SDS011;10207;50.942;6.900;2023-02-15T00:46:23;33.30;;;16.87;;
20095;SDS011;10207;50.942;6.900;2023-02-15T00:48:49;42.87;;;21.03;;
20095;SDS011;10207;50.942;6.900;2023-02-15T00:51:15;40.93;;;17.90;;
20095;SDS011;10207;50.942;6.900;2023-02-15T00:53:41;30.70;;;14.83;;
20095;SDS011;10207;50.942;6.900;2023-02-15T00:56:06;41.37;;;20.20;;
20095;SDS011;10207;50.942;6.900;2023-02-15T00:58:32;29.10;;;13.17;;
20095;SDS011;10207;50.942;6.900;2023-02-15T01:01:05;26.57;;;13.57;;
20095;SDS011;10207;50.942;6.900;2023-02-15T01:03:31;39.13;;;18.87;;
20095;SDS011;10207;50.942;6.900;2023-02-15T01:05:57;39.50;;;18.20;;
20095;SDS011;10207;50.942;6.900;2023-02-15T01:08:23;30.43;;;14.83;;
20095;SDS011;10207;50.942;6.900;2023-02-15T01:10:49;42.93;;;20.83;;
20095;SDS011;10207;50.942;6.900;2023-02-15T01:13:15;39.17;;;17.77;;
20095;SDS011;10207;50.942;6.900;2023-02-15T01:15:42;45.90;;;21.20;;
20095;SDS011;10207;50.942;6.900;2023-02-15T01:18:08;46.33;;;22.67;;
20095;SDS011;10207;50.942;6.900;2023-02-15T01:20:35;42.33;;;21.20;;
20095;SDS011;10207;50.942;6.900;2023-02-15T01:23:05;22.33;;;11.60;;
20095;SDS011;10207;50.942;6.900;2023-02-15T01:25:32;42.77;;;20.77;;
20095;SDS011;10207;50.942;6.900;2023-02-15T01:27:58;31.97;;;16.30;;
20095;SDS011;10207;50.942;6.900;2023-02-15T01:30:24;40.20;;;19.00;;
20095;SDS011;10207;50.942;6.900;2023-02-15T01:32:50;42.73;;;20.97;;
20095;SDS011;10207;50.942;6.900;2023-02-15T01:35:16;31.20;;;15.63;;
20095;SDS011;10207;50.942;6.900;2023-02-15T01:37:42;37.80;;;19.33;;
20095;SDS011;10207;50.942;6.900;2023-02-15T01:40:11;35.30;;;16.57;;
20095;SDS011;10207;50.942;6.900;2023-02-15T01:42:38;38.07;;;16.73;;
20095;SDS011;10207;50.942;6.900;2023-02-15T01:45:05;43.97;;;22.27;;
20095;SDS011;10207;50.942;6.900;2023-02-15T01:52:35;43.67;;;20.47;;
20095;SDS011;10207;50.942;6.900;2023-02-15T01:55:03;46.50;;;20.93;;
20095;SDS011;10207;50.942;6.900;2023-02-15T01:57:30;39.97;;;20.20;;
20095;SDS011;10207;50.942;6.900;2023-02-15T01:59:56;36.23;;;14.80;;
20095;SDS011;10207;50.942;6.900;2023-02-15T02:02:24;47.97;;;21.47;;
20095;SDS011;10207;50.942;6.900;2023-02-15T02:04:53;43.47;;;19.23;;
20095;SDS011;10207;50.942;6.900;2023-02-15T02:07:22;38.67;;;19.47;;
20095;SDS011;10207;50.942;6.900;2023-02-15T02:09:48;25.77;;;12.67;;
20095;SDS011;10207;50.942;6.900;2023-02-15T02:12:18;39.70;;;18.30;;
20095;SDS011;10207;50.942;6.900;2023-02-15T02:14:44;41.13;;;19.50;;
20095;SDS011;10207;50.942;6.900;2023-02-15T02:30:48;41.77;;;20.57;;
20095;SDS011;10207;50.942;6.900;2023-02-15T02:33:38;47.10;;;20.77;;
20095;SDS011;10207;50.942;6.900;2023-02-15T02:41:22;42.80;;;20.60;;
20095;SDS011;10207;50.942;6.900;2023-02-15T02:43:53;43.20;;;19.00;;
20095;SDS011;10207;50.942;6.900;2023-02-15T02:46:35;47.60;;;21.23;;
20095;SDS011;10207;50.942;6.900;2023-02-15T02:49:02;51.07;;;21.87;;
20095;SDS011;10207;50.942;6.900;2023-02-15T02:51:30;46.67;;;21.30;;
20095;SDS011;10207;50.942;6.900;2023-02-15T02:53:58;40.60;;;18.30;;
20095;SDS011;10207;50.942;6.900;2023-02-15T02:59:03;44.27;;;20.80;;
20095;SDS011;10207;50.942;6.900;2023-02-15T03:01:32;47.80;;;21.50;;
20095;SDS011;10207;50.942;6.900;2023-02-15T03:04:03;37.10;;;16.43;;
20095;SDS011;10207;50.942;6.900;2023-02-15T03:06:34;43.63;;;19.50;;
20095;SDS011;10207;50.942;6.900;2023-02-15T03:09:03;48.53;;;21.93;;
20095;SDS011;10207;50.942;6.900;2023-02-15T03:11:33;49.03;;;22.33;;
20095;SDS011;10207;50.942;6.900;2023-02-15T03:13:59;44.87;;;20.63;;
20095;SDS011;10207;50.942;6.900;2023-02-15T03:16:26;42.50;;;20.00;;
20095;SDS011;10207;50.942;6.900;2023-02-15T03:21:32;39.40;;;18.13;;
20095;SDS011;10207;50.942;6.900;2023-02-15T03:24:01;44.60;;;17.67;;
20095;SDS011;10207;50.942;6.900;2023-02-15T03:26:30;40.93;;;19.00;;
20095;SDS011;10207;50.942;6.900;2023-02-15T03:28:59;46.67;;;21.33;;
20095;SDS011;10207;50.942;6.900;2023-02-15T03:31:28;39.13;;;18.93;;
20095;SDS011;10207;50.942;6.900;2023-02-15T03:34:03;42.87;;;18.97;;
20095;SDS011;10207;50.942;6.900;2023-02-15T03:36:36;35.60;;;15.77;;
20095;SDS011;10207;50.942;6.900;2023-02-15T03:41:36;52.23;;;22.03;;
20095;SDS011;10207;50.942;6.900;2023-02-15T03:44:07;45.37;;;19.37;;
20095;SDS011;10207;50.942;6.900;2023-02-15T03:46:44;43.70;;;18.80;;
20095;SDS011;10207;50.942;6.900;2023-02-15T03:49:17;42.87;;;19.23;;
20095;SDS011;10207;50.942;6.900;2023-02-15T03:51:46;51.50;;;20.50;;
20095;SDS011;10207;50.942;6.900;2023-02-15T03:54:14;49.10;;;20.60;;
20095;SDS011;10207;50.942;6.900;2023-02-15T03:57:04;45.20;;;20.67;;
20095;SDS011;10207;50.942;6.900;2023-02-15T03:59:50;29.97;;;14.60;;
20095;SDS011;10207;50.942;6.900;2023-02-15T04:03:17;46.67;;;19.73;;
20095;SDS011;10207;50.942;6.900;2023-02-15T04:05:31;44.63;;;19.40;;
20095;SDS011;10207;50.942;6.900;2023-02-15T04:07:57;39.00;;;16.13;;
20095;SDS011;10207;50.942;6.900;2023-02-15T04:10:23;50.10;;;20.00;;
20095;SDS011;10207;50.942;6.900;2023-02-15T04:13:15;38.87;;;16.03;;
20095;SDS011;10207;50.942;6.900;2023-02-15T04:15:41;46.37;;;21.07;;
20095;SDS011;10207;50.942;6.900;2023-02-15T04:18:26;39.13;;;16.67;;
20095;SDS011;10207;50.942;6.900;2023-02-15T04:21:10;45.47;;;20.80;;
20095;SDS011;10207;50.942;6.900;2023-02-15T04:23:55;45.30;;;19.33;;
20095;SDS011;10207;50.942;6.900;2023-02-15T04:26:39;42.47;;;20.27;;
20095;SDS011;10207;50.942;6.900;2023-02-15T04:29:05;45.50;;;21.30;;
20095;SDS011;10207;50.942;6.900;2023-02-15T04:31:31;37.67;;;16.33;;
20095;SDS011;10207;50.942;6.900;2023-02-15T04:33:57;32.13;;;16.00;;
20095;SDS011;10207;50.942;6.900;2023-02-15T04:36:23;32.77;;;13.40;;
20095;SDS011;10207;50.942;6.900;2023-02-15T04:38:49;37.90;;;17.77;;
20095;SDS011;10207;50.942;6.900;2023-02-15T04:41:15;47.20;;;19.70;;
20095;SDS011;10207;50.942;6.900;2023-02-15T04:43:41;35.87;;;16.93;;
20095;SDS011;10207;50.942;6.900;2023-02-15T04:46:07;50.17;;;21.80;;
20095;SDS011;10207;50.942;6.900;2023-02-15T04:48:33;50.90;;;20.87;;
20095;SDS011;10207;50.942;6.900;2023-02-15T04:50:59;43.93;;;20.17;;
20095;SDS011;10207;50.942;6.900;2023-02-15T04:53:25;51.73;;;19.43;;
20095;SDS011;10207;50.942;6.900;2023-02-15T04:55:50;41.60;;;20.17;;
20095;SDS011;10207;50.942;6.900;2023-02-15T04:58:16;35.03;;;14.77;;
20095;SDS011;10207;50.942;6.900;2023-02-15T05:00:42;36.80;;;16.47;;
20095;SDS011;10207;50.942;6.900;2023-02-15T05:03:08;39.83;;;17.30;;
20095;SDS011;10207;50.942;6.900;2023-02-15T05:05:35;37.80;;;18.03;;
20095;SDS011;10207;50.942;6.900;2023-02-15T05:08:01;35.73;;;15.73;;
20095;SDS011;10207;50.942;6.900;2023-02-15T05:10:27;38.80;;;17.67;;
20095;SDS011;10207;50.942;6.900;2023-02-15T05:12:52;32.93;;;15.50;;
20095;SDS011;10207;50.942;6.900;2023-02-15T05:15:18;22.70;;;10.97;;
20095;SDS011;10207;50.942;6.900;2023-02-15T05:17:44;41.63;;;18.10;;
20095;SDS011;10207;50.942;6.900;2023-02-15T05:20:10;30.40;;;13.87;;
20095;SDS011;10207;50.942;6.900;2023-02-15T05:22:36;35.90;;;17.30;;
20095;SDS011;10207;50.942;6.900;2023-02-15T05:25:02;43.17;;;20.67;;
20095;SDS011;10207;50.942;6.900;2023-02-15T05:27:47;34.07;;;15.40;;
20095;SDS011;10207;50.942;6.900;2023-02-15T05:30:32;32.83;;;16.17;;
20095;SDS011;10207;50.942;6.900;2023-02-15T05:32:58;37.07;;;17.03;;
20095;SDS011;10207;50.942;6.900;2023-02-15T05:35:24;41.77;;;19.43;;
20095;SDS011;10207;50.942;6.900;2023-02-15T05:37:49;21.53;;;11.97;;
20095;SDS011;10207;50.942;6.900;2023-02-15T05:40:16;27.27;;;13.03;;
20095;SDS011;10207;50.942;6.900;2023-02-15T05:42:41;40.70;;;18.13;;
20095;SDS011;10207;50.942;6.900;2023-02-15T05:45:07;28.73;;;14.13;;
20095;SDS011;10207;50.942;6.900;2023-02-15T05:47:33;35.30;;;16.70;;
20095;SDS011;10207;50.942;6.900;2023-02-15T05:50:00;35.50;;;15.53;;
20095;SDS011;10207;50.942;6.900;2023-02-15T05:52:25;42.83;;;19.70;;
20095;SDS011;10207;50.942;6.900;2023-02-15T05:54:51;44.63;;;17.97;;
20095;SDS011;10207;50.942;6.900;2023-02-15T05:57:17;29.40;;;13.57;;
20095;SDS011;10207;50.942;6.900;2023-02-15T05:59:43;41.27;;;19.27;;
20095;SDS011;10207;50.942;6.900;2023-02-15T06:02:09;38.13;;;14.80;;
20095;SDS011;10207;50.942;6.900;2023-02-15T06:04:35;31.43;;;15.13;;
20095;SDS011;10207;50.942;6.900;2023-02-15T06:07:01;33.87;;;15.63;;
20095;SDS011;10207;50.942;6.900;2023-02-15T06:09:27;36.50;;;16.87;;
20095;SDS011;10207;50.942;6.900;2023-02-15T06:11:53;31.53;;;15.07;;
20095;SDS011;10207;50.942;6.900;2023-02-15T06:14:19;28.77;;;13.20;;
20095;SDS011;10207;50.942;6.900;2023-02-15T06:16:45;27.73;;;12.90;;
20095;SDS011;10207;50.942;6.900;2023-02-15T06:19:11;40.77;;;17.77;;
20095;SDS011;10207;50.942;6.900;2023-02-15T06:21:37;31.80;;;16.40;;
20095;SDS011;10207;50.942;6.900;2023-02-15T06:24:03;32.47;;;15.30;;
20095;SDS011;10207;50.942;6.900;2023-02-15T06:26:29;40.10;;;16.57;;
20095;SDS011;10207;50.942;6.900;2023-02-15T06:28:54;33.73;;;13.67;;
20095;SDS011;10207;50.942;6.900;2023-02-15T06:31:20;18.67;;;10.03;;
20095;SDS011;10207;50.942;6.900;2023-02-15T06:33:47;28.63;;;14.60;;
20095;SDS011;10207;50.942;6.900;2023-02-15T06:36:13;34.57;;;17.00;;
20095;SDS011;10207;50.942;6.900;2023-02-15T06:38:39;24.60;;;12.00;;
20095;SDS011;10207;50.942;6.900;2023-02-15T06:41:05;38.50;;;17.07;;
20095;SDS011;10207;50.942;6.900;2023-02-15T06:43:31;18.53;;;8.70;;
20095;SDS011;10207;50.942;6.900;2023-02-15T06:45:57;35.27;;;14.57;;
20095;SDS011;10207;50.942;6.900;2023-02-15T06:48:23;27.87;;;13.43;;
20095;SDS011;10207;50.942;6.900;2023-02-15T06:50:49;36.30;;;16.63;;
20095;SDS011;10207;50.942;6.900;2023-02-15T06:53:15;20.43;;;11.43;;
20095;SDS011;10207;50.942;6.900;2023-02-15T06:55:41;27.00;;;13.27;;
20095;SDS011;10207;50.942;6.900;2023-02-15T06:58:07;36.80;;;17.20;;
20095;SDS011;10207;50.942;6.900;2023-02-15T07:00:33;31.83;;;14.97;;
20095;SDS011;10207;50.942;6.900;2023-02-15T07:02:59;25.93;;;13.47;;
20095;SDS011;10207;50.942;6.900;2023-02-15T07:05:25;24.07;;;12.70;;
20095;SDS011;10207;50.942;6.900;2023-02-15T07:07:56;34.83;;;16.80;;
20095;SDS011;10207;50.942;6.900;2023-02-15T07:10:22;21.87;;;11.07;;
20095;SDS011;10207;50.942;6.900;2023-02-15T07:12:48;28.17;;;12.77;;
20095;SDS011;10207;50.942;6.900;2023-02-15T07:15:15;34.70;;;16.97;;
20095;SDS011;10207;50.942;6.900;2023-02-15T07:17:42;27.53;;;13.57;;
20095;SDS011;10207;50.942;6.900;2023-02-15T07:20:19;21.13;;;10.27;;
20095;SDS011;10207;50.942;6.900;2023-02-15T07:22:45;30.13;;;15.80;;
20095;SDS011;10207;50.942;6.900;2023-02-15T07:25:11;33.77;;;17.10;;
20095;SDS011;10207;50.942;6.900;2023-02-15T07:27:38;24.37;;;11.40;;
20095;SDS011;10207;50.942;6.900;2023-02-15T07:30:04;21.47;;;12.13;;
20095;SDS011;10207;50.942;6.900;2023-02-15T07:32:31;29.60;;;16.00;;
20095;SDS011;10207;50.942;6.900;2023-02-15T07:34:57;27.03;;;13.70;;
20095;SDS011;10207;50.942;6.900;2023-02-15T07:37:24;27.00;;;13.93;;
20095;SDS011;10207;50.942;6.900;2023-02-15T07:39:50;25.53;;;12.70;;
20095;SDS011;10207;50.942;6.900;2023-02-15T07:42:16;26.93;;;13.03;;
20095;SDS011;10207;50.942;6.900;2023-02-15T07:44:43;22.97;;;12.80;;
20095;SDS011;10207;50.942;6.900;2023-02-15T07:47:10;25.47;;;9.07;;
20095;SDS011;10207;50.942;6.900;2023-02-15T07:49:37;19.83;;;9.80;;
20095;SDS011;10207;50.942;6.900;2023-02-15T07:52:03;19.17;;;10.47;;
20095;SDS011;10207;50.942;6.900;2023-02-15T07:54:29;20.42;;;12.25;;
20095;SDS011;10207;50.942;6.900;2023-02-15T07:56:55;23.38;;;12.52;;
20095;SDS011;10207;50.942;6.900;2023-02-15T07:59:21;19.58;;;11.45;;
20095;SDS011;10207;50.942;6.900;2023-02-15T08:01:47;23.75;;;8.90;;
20095;SDS011;10207;50.942;6.900;2023-02-15T08:04:13;17.80;;;9.02;;
20095;SDS011;10207;50.942;6.900;2023-02-15T08:06:39;18.10;;;8.70;;
20095;SDS011;10207;50.942;6.900;2023-02-15T08:09:06;19.63;;;11.18;;
20095;SDS011;10207;50.942;6.900;2023-02-15T08:11:33;19.55;;;10.93;;
20095;SDS011;10207;50.942;6.900;2023-02-15T08:14:20;15.60;;;8.63;;
20095;SDS011;10207;50.942;6.900;2023-02-15T08:16:48;18.40;;;9.30;;
20095;SDS011;10207;50.942;6.900;2023-02-15T08:19:16;19.13;;;9.82;;
20095;SDS011;10207;50.942;6.900;2023-02-15T08:21:46;14.73;;;8.25;;
20095;SDS011;10207;50.942;6.900;2023-02-15T08:24:13;17.52;;;9.27;;
20095;SDS011;10207;50.942;6.900;2023-02-15T08:26:39;17.60;;;9.60;;
20095;SDS011;10207;50.942;6.900;2023-02-15T08:29:05;17.85;;;9.00;;
20095;SDS011;10207;50.942;6.900;2023-02-15T08:31:32;19.88;;;9.75;;
20095;SDS011;10207;50.942;6.900;2023-02-15T08:33:58;14.15;;;7.00;;
20095;SDS011;10207;50.942;6.900;2023-02-15T08:36:26;16.05;;;9.60;;
20095;SDS011;10207;50.942;6.900;2023-02-15T08:38:52;8.75;;;5.20;;
20095;SDS011;10207;50.942;6.900;2023-02-15T08:41:20;11.73;;;6.43;;
20095;SDS011;10207;50.942;6.900;2023-02-15T08:43:47;14.90;;;8.70;;
20095;SDS011;10207;50.942;6.900;2023-02-15T08:46:14;17.02;;;9.52;;
20095;SDS011;10207;50.942;6.900;2023-02-15T08:48:40;16.20;;;8.60;;
20095;SDS011;10207;50.942;6.900;2023-02-15T08:51:14;15.27;;;8.13;;
20095;SDS011;10207;50.942;6.900;2023-02-15T08:53:41;17.42;;;9.77;;
20095;SDS011;10207;50.942;6.900;2023-02-15T08:56:08;13.93;;;7.40;;
20095;SDS011;10207;50.942;6.900;2023-02-15T08:58:34;18.33;;;10.48;;
20095;SDS011;10207;50.942;6.900;2023-02-15T09:01:00;15.40;;;8.27;;
20095;SDS011;10207;50.942;6.900;2023-02-15T09:03:28;14.90;;;8.52;;
20095;SDS011;10207;50.942;6.900;2023-02-15T09:05:58;18.13;;;9.65;;
20095;SDS011;10207;50.942;6.900;2023-02-15T09:08:24;15.55;;;8.52;;
20095;SDS011;10207;50.942;6.900;2023-02-15T09:10:50;16.73;;;9.32;;
20095;SDS011;10207;50.942;6.900;2023-02-15T09:13:15;15.85;;;8.85;;
20095;SDS011;10207;50.942;6.900;2023-02-15T09:15:42;20.25;;;9.82;;
20095;SDS011;10207;50.942;6.900;2023-02-15T09:18:07;17.05;;;10.93;;
20095;SDS011;10207;50.942;6.900;2023-02-15T09:20:37;14.07;;;9.48;;
20095;SDS011;10207;50.942;6.900;2023-02-15T09:23:03;16.88;;;8.90;;
20095;SDS011;10207;50.942;6.900;2023-02-15T09:25:29;18.67;;;9.23;;
20095;SDS011;10207;50.942;6.900;2023-02-15T09:27:55;16.52;;;9.52;;
20095;SDS011;10207;50.942;6.900;2023-02-15T09:30:21;13.95;;;8.68;;
20095;SDS011;10207;50.942;6.900;2023-02-15T09:32:47;16.85;;;8.98;;
20095;SDS011;10207;50.942;6.900;2023-02-15T09:35:13;13.82;;;8.30;;
20095;SDS011;10207;50.942;6.900;2023-02-15T09:37:39;15.95;;;9.23;;
20095;SDS011;10207;50.942;6.900;2023-02-15T09:40:05;12.18;;;7.15;;
20095;SDS011;10207;50.942;6.900;2023-02-15T09:45:31;12.35;;;7.82;;
20095;SDS011;10207;50.942;6.900;2023-02-15T09:50:34;11.93;;;7.32;;
20095;SDS011;10207;50.942;6.900;2023-02-15T09:53:20;17.38;;;8.43;;
20095;SDS011;10207;50.942;6.900;2023-02-15T09:56:00;10.82;;;7.38;;
20095;SDS011;10207;50.942;6.900;2023-02-15T10:08:49;14.07;;;8.23;;
20095;SDS011;10207;50.942;6.900;2023-02-15T10:16:41;16.50;;;8.82;;
20095;SDS011;10207;50.942;6.900;2023-02-15T10:19:13;16.83;;;9.45;;
20095;SDS011;10207;50.942;6.900;2023-02-15T10:22:00;13.45;;;7.53;;
20095;SDS011;10207;50.942;6.900;2023-02-15T10:26:58;14.73;;;9.35;;
20095;SDS011;10207;50.942;6.900;2023-02-15T10:29:28;15.20;;;8.20;;
20095;SDS011;10207;50.942;6.900;2023-02-15T10:58:05;15.23;;;9.20;;
20095;SDS011;10207;50.942;6.900;2023-02-15T11:05:41;14.05;;;9.02;;
20095;SDS011;10207;50.942;6.900;2023-02-15T11:08:10;14.52;;;9.27;;
20095;SDS011;10207;50.942;6.900;2023-02-15T11:13:03;14.80;;;9.23;;
20095;SDS011;10207;50.942;6.900;2023-02-15T11:17:58;15.98;;;9.50;;
20095;SDS011;10207;50.942;6.900;2023-02-15T11:20:30;17.50;;;8.63;;
20095;SDS011;10207;50.942;6.900;2023-02-15T11:22:57;14.18;;;8.77;;
20095;SDS011;10207;50.942;6.900;2023-02-15T11:25:25;10.55;;;5.97;;
20095;SDS011;10207;50.942;6.900;2023-02-15T11:27:53;15.38;;;8.48;;
20095;SDS011;10207;50.942;6.900;2023-02-15T11:30:21;18.08;;;9.80;;
20095;SDS011;10207;50.942;6.900;2023-02-15T11:32:48;16.45;;;8.63;;
20095;SDS011;10207;50.942;6.900;2023-02-15T11:35:22;15.38;;;9.45;;
20095;SDS011;10207;50.942;6.900;2023-02-15T11:38:11;15.73;;;9.15;;
20095;SDS011;10207;50.942;6.900;2023-02-15T11:43:17;15.93;;;9.70;;
20095;SDS011;10207;50.942;6.900;2023-02-15T11:45:46;13.65;;;7.85;;
20095;SDS011;10207;50.942;6.900;2023-02-15T11:48:12;14.43;;;8.23;;
20095;SDS011;10207;50.942;6.900;2023-02-15T11:50:39;14.25;;;8.63;;
20095;SDS011;10207;50.942;6.900;2023-02-15T11:53:16;17.30;;;8.15;;
20095;SDS011;10207;50.942;6.900;2023-02-15T11:55:46;15.40;;;8.90;;
20095;SDS011;10207;50.942;6.900;2023-02-15T12:03:33;15.73;;;8.70;;
20095;SDS011;10207;50.942;6.900;2023-02-15T12:06:02;15.32;;;9.45;;
20095;SDS011;10207;50.942;6.900;2023-02-15T12:08:39;22.25;;;10.43;;
20095;SDS011;10207;50.942;6.900;2023-02-15T12:11:09;16.15;;;8.63;;
20095;SDS011;10207;50.942;6.900;2023-02-15T12:13:53;16.38;;;9.25;;
20095;SDS011;10207;50.942;6.900;2023-02-15T12:16:19;16.63;;;9.43;;
20095;SDS011;10207;50.942;6.900;2023-02-15T12:18:45;16.13;;;8.90;;
20095;SDS011;10207;50.942;6.900;2023-02-15T12:21:25;13.07;;;7.28;;
20095;SDS011;10207;50.942;6.900;2023-02-15T12:23:53;15.73;;;8.80;;
20095;SDS011;10207;50.942;6.900;2023-02-15T12:26:23;17.67;;;8.77;;
20095;SDS011;10207;50.942;6.900;2023-02-15T12:28:49;15.07;;;9.23;;
20095;SDS011;10207;50.942;6.900;2023-02-15T12:31:19;13.43;;;8.30;;
20095;SDS011;10207;50.942;6.900;2023-02-15T12:33:46;15.98;;;9.32;;
20095;SDS011;10207;50.942;6.900;2023-02-15T12:36:17;16.33;;;9.38;;
20095;SDS011;10207;50.942;6.900;2023-02-15T12:39:01;13.68;;;9.40;;
20095;SDS011;10207;50.942;6.900;2023-02-15T12:41:28;14.32;;;8.90;;
20095;SDS011;10207;50.942;6.900;2023-02-15T12:46:29;17.08;;;9.80;;
20095;SDS011;10207;50.942;6.900;2023-02-15T12:49:04;13.88;;;8.73;;
20095;SDS011;10207;50.942;6.900;2023-02-15T12:51:37;12.48;;;7.47;;
20095;SDS011;10207;50.942;6.900;2023-02-15T12:54:41;18.40;;;9.52;;
20095;SDS011;10207;50.942;6.900;2023-02-15T12:57:12;22.17;;;9.30;;
20095;SDS011;10207;50.942;6.900;2023-02-15T13:02:31;15.90;;;8.00;;
20095;SDS011;10207;50.942;6.900;2023-02-15T13:05:05;11.40;;;7.32;;
20095;SDS011;10207;50.942;6.900;2023-02-15T13:07:34;21.10;;;9.57;;
20095;SDS011;10207;50.942;6.900;2023-02-15T13:10:00;15.55;;;8.40;;
20095;SDS011;10207;50.942;6.900;2023-02-15T13:12:27;10.05;;;5.95;;
20095;SDS011;10207;50.942;6.900;2023-02-15T13:14:56;13.68;;;7.88;;
20095;SDS011;10207;50.942;6.900;2023-02-15T13:17:26;18.30;;;8.90;;
20095;SDS011;10207;50.942;6.900;2023-02-15T13:19:56;15.27;;;8.73;;
20095;SDS011;10207;50.942;6.900;2023-02-15T13:22:33;12.73;;;8.02;;
20095;SDS011;10207;50.942;6.900;2023-02-15T13:25:03;13.13;;;7.68;;
20095;SDS011;10207;50.942;6.900;2023-02-15T13:27:39;12.60;;;7.53;;
20095;SDS011;10207;50.942;6.900;2023-02-15T13:30:41;16.40;;;9.43;;
20095;SDS011;10207;50.942;6.900;2023-02-15T13:33:02;14.68;;;7.53;;
20095;SDS011;10207;50.942;6.900;2023-02-15T13:35:31;14.45;;;9.02;;
20095;SDS011;10207;50.942;6.900;2023-02-15T13:54:07;15.40;;;8.57;;
20095;SDS011;10207;50.942;6.900;2023-02-15T13:59:53;13.60;;;8.38;;
20095;SDS011;10207;50.942;6.900;2023-02-15T14:02:43;12.65;;;6.32;;
20095;SDS011;10207;50.942;6.900;2023-02-15T14:10:18;15.50;;;8.75;;
20095;SDS011;10207;50.942;6.900;2023-02-15T14:12:57;13.45;;;8.38;;
20095;SDS011;10207;50.942;6.900;2023-02-15T14:15:31;15.35;;;9.00;;
20095;SDS011;10207;50.942;6.900;2023-02-15T14:18:20;15.32;;;8.88;;
20095;SDS011;10207;50.942;6.900;2023-02-15T14:20:58;14.90;;;9.00;;
20095;SDS011;10207;50.942;6.900;2023-02-15T14:26:00;12.88;;;8.25;;
20095;SDS011;10207;50.942;6.900;2023-02-15T14:28:31;12.95;;;8.10;;
20095;SDS011;10207;50.942;6.900;2023-02-15T14:30:59;19.88;;;9.05;;
20095;SDS011;10207;50.942;6.900;2023-02-15T14:33:36;14.15;;;8.15;;
20095;SDS011;10207;50.942;6.900;2023-02-15T14:36:04;15.63;;;8.63;;
20095;SDS011;10207;50.942;6.900;2023-02-15T14:46:42;13.93;;;8.27;;
20095;SDS011;10207;50.942;6.900;2023-02-15T14:49:11;16.38;;;7.72;;
20095;SDS011;10207;50.942;6.900;2023-02-15T14:56:42;17.65;;;7.82;;
20095;SDS011;10207;50.942;6.900;2023-02-15T15:01:38;15.07;;;8.50;;
20095;SDS011;10207;50.942;6.900;2023-02-15T15:04:09;15.90;;;8.10;;
20095;SDS011;10207;50.942;6.900;2023-02-15T15:06:38;12.02;;;7.00;;
20095;SDS011;10207;50.942;6.900;2023-02-15T15:14:03;19.35;;;8.88;;
20095;SDS011;10207;50.942;6.900;2023-02-15T15:19:02;17.77;;;9.40;;
20095;SDS011;10207;50.942;6.900;2023-02-15T15:29:41;14.85;;;9.15;;
20095;SDS011;10207;50.942;6.900;2023-02-15T15:32:08;14.27;;;8.45;;
20095;SDS011;10207;50.942;6.900;2023-02-15T15:34:45;15.30;;;9.10;;
20095;SDS011;10207;50.942;6.900;2023-02-15T15:39:52;13.65;;;8.45;;
20095;SDS011;10207;50.942;6.900;2023-02-15T15:42:29;14.95;;;8.85;;
20095;SDS011;10207;50.942;6.900;2023-02-15T15:48:01;13.90;;;8.07;;
20095;SDS011;10207;50.942;6.900;2023-02-15T15:50:30;17.98;;;10.23;;
20095;SDS011;10207;50.942;6.900;2023-02-15T15:52:57;19.08;;;10.05;;
20095;SDS011;10207;50.942;6.900;2023-02-15T15:55:25;16.98;;;9.75;;
20095;SDS011;10207;50.942;6.900;2023-02-15T15:58:09;13.63;;;8.55;;
20095;SDS011;10207;50.942;6.900;2023-02-15T16:00:42;16.13;;;8.73;;
20095;SDS011;10207;50.942;6.900;2023-02-15T16:03:16;14.50;;;8.70;;
20095;SDS011;10207;50.942;6.900;2023-02-15T16:05:42;19.05;;;9.23;;
20095;SDS011;10207;50.942;6.900;2023-02-15T16:08:08;16.17;;;9.98;;
20095;SDS011;10207;50.942;6.900;2023-02-15T16:10:33;18.65;;;9.52;;
20095;SDS011;10207;50.942;6.900;2023-02-15T16:13:01;16.77;;;9.63;;
20095;SDS011;10207;50.942;6.900;2023-02-15T16:17:54;17.75;;;9.90;;
20095;SDS011;10207;50.942;6.900;2023-02-15T16:20:26;18.88;;;10.55;;
20095;SDS011;10207;50.942;6.900;2023-02-15T16:23:08;17.40;;;9.90;;
20095;SDS011;10207;50.942;6.900;2023-02-15T16:28:15;17.10;;;10.45;;
20095;SDS011;10207;50.942;6.900;2023-02-15T16:30:44;19.42;;;10.98;;
20095;SDS011;10207;50.942;6.900;2023-02-15T16:33:11;16.10;;;8.88;;
20095;SDS011;10207;50.942;6.900;2023-02-15T16:35:38;19.15;;;10.70;;
20095;SDS011;10207;50.942;6.900;2023-02-15T16:38:04;19.85;;;10.57;;
20095;SDS011;10207;50.942;6.900;2023-02-15T16:40:34;18.38;;;10.75;;
20095;SDS011;10207;50.942;6.900;2023-02-15T16:43:02;17.65;;;10.00;;
20095;SDS011;10207;50.942;6.900;2023-02-15T16:45:29;17.58;;;10.60;;
20095;SDS011;10207;50.942;6.900;2023-02-15T16:47:56;21.13;;;11.60;;
20095;SDS011;10207;50.942;6.900;2023-02-15T16:50:24;19.02;;;10.55;;
20095;SDS011;10207;50.942;6.900;2023-02-15T16:52:51;18.80;;;9.82;;
20095;SDS011;10207;50.942;6.900;2023-02-15T16:55:21;16.20;;;9.23;;
20095;SDS011;10207;50.942;6.900;2023-02-15T16:57:48;16.67;;;9.77;;
20095;SDS011;10207;50.942;6.900;2023-02-15T17:00:18;18.73;;;10.95;;
20095;SDS011;10207;50.942;6.900;2023-02-15T17:02:56;17.60;;;10.43;;
20095;SDS011;10207;50.942;6.900;2023-02-15T17:05:23;17.92;;;9.75;;
20095;SDS011;10207;50.942;6.900;2023-02-15T17:10:32;18.35;;;9.35;;
20095;SDS011;10207;50.942;6.900;2023-02-15T17:13:20;16.48;;;10.18;;
20095;SDS011;10207;50.942;6.900;2023-02-15T17:18:25;17.23;;;9.88;;
20095;SDS011;10207;50.942;6.900;2023-02-15T17:20:53;18.75;;;10.38;;
20095;SDS011;10207;50.942;6.900;2023-02-15T17:25:51;19.35;;;11.60;;
20095;SDS011;10207;50.942;6.900;2023-02-15T17:28:25;15.20;;;10.00;;
20095;SDS011;10207;50.942;6.900;2023-02-15T17:30:51;20.17;;;10.43;;
20095;SDS011;10207;50.942;6.900;2023-02-15T17:33:19;17.25;;;9.50;;
20095;SDS011;10207;50.942;6.900;2023-02-15T17:36:01;17.77;;;10.55;;
20095;SDS011;10207;50.942;6.900;2023-02-15T17:38:27;20.88;;;10.60;;
20095;SDS011;10207;50.942;6.900;2023-02-15T17:40:53;16.40;;;9.38;;